Time;durP1;ratioP1;P1;durP2;ratioP2;P2;SDS_P1;SDS_P2;PMS_P1;PMS_P2;Temp;Humidity;BMP_temperature;BMP_pressure;BME280_temperature;BME280_humidity;BME280_pressure;Samples;Min_cycle;Max_cycle;Signal;HPM_P1;HPM_P2
2023/06/27 08:57:29;;;;;;;9.45;2.47;;;;;;;19.71;61.49;101810.91;5069623;28;20386;-68
2023/06/27 08:59:57;;;;;;;7.28;2.42;;;;;;;19.70;61.93;101810.09;5069327;28;20538;-68
2023/06/27 09:02:25;;;;;;;8.60;2.70;;;;;;;19.62;61.13;101808.63;5063006;28;20058;-68
2023/06/27 09:04:51;;;;;;;8.23;2.40;;;;;;;19.66;62.62;101812.50;5068165;28;20446;-68
2023/06/27 09:07:17;;;;;;;9.35;2.28;;;;;;;19.66;61.81;101808.94;5069808;28;20028;-68
2023/06/27 09:09:42;;;;;;;7.18;2.42;;;;;;;19.69;61.71;101807.56;5069292;28;20436;-69
2023/06/27 09:12:08;;;;;;;12.23;2.90;;;;;;;19.72;62.49;101820.81;5069663;28;20457;-69
2023/06/27 09:14:34;;;;;;;5.85;2.30;;;;;;;19.76;60.85;101810.91;5069863;28;20471;-68
2023/06/27 09:16:59;;;;;;;6.60;2.05;;;;;;;19.81;57.55;101813.75;5051824;28;20068;-68
2023/06/27 09:19:25;;;;;;;6.38;1.95;;;;;;;19.88;57.35;101813.50;5048788;28;20068;-68
2023/06/27 09:21:50;;;;;;;9.55;2.00;;;;;;;19.94;57.37;101816.03;5063042;28;20029;-68
2023/06/27 09:24:24;;;;;;;5.88;1.95;;;;;;;20.03;57.53;101810.84;5068884;28;20033;-68
2023/06/27 09:26:49;;;;;;;4.57;1.67;;;;;;;20.00;54.20;101814.97;5068654;28;20033;-67
2023/06/27 09:29:15;;;;;;;5.22;1.50;;;;;;;20.07;55.17;101816.66;5068804;28;20044;-68
2023/06/27 09:31:40;;;;;;;6.70;1.70;;;;;;;20.05;52.96;101811.44;5068608;28;20358;-67
2023/06/27 09:34:12;;;;;;;7.10;1.98;;;;;;;20.14;53.00;101820.84;5063742;28;20230;-68
2023/06/27 09:36:39;;;;;;;6.47;1.83;;;;;;;20.31;53.10;101820.63;5048342;28;20036;-68
2023/06/27 09:39:09;;;;;;;8.20;1.77;;;;;;;20.34;50.76;101822.84;5056629;28;20078;-68
2023/06/27 09:41:45;;;;;;;5.18;1.63;;;;;;;20.60;52.07;101827.66;5051283;28;20029;-68
2023/06/27 09:44:15;;;;;;;8.48;1.60;;;;;;;20.62;50.68;101826.28;5053850;28;20040;-68
2023/06/27 09:46:45;;;;;;;6.37;1.47;;;;;;;20.65;50.85;101817.53;5048542;28;20029;-68
2023/06/27 09:49:11;;;;;;;6.68;1.77;;;;;;;20.76;51.39;101828.53;5048630;28;20072;-68
2023/06/27 09:51:37;;;;;;;4.82;1.20;;;;;;;20.73;47.80;101829.94;5048659;28;20037;-67
2023/06/27 09:54:02;;;;;;;6.00;1.38;;;;;;;20.79;47.91;101839.00;5048352;28;20461;-67
2023/06/27 09:56:33;;;;;;;2.67;1.33;;;;;;;20.82;47.71;101832.97;5059339;28;20152;-67
2023/06/27 09:59:09;;;;;;;3.67;1.55;;;;;;;20.98;48.98;101829.16;5052606;28;20438;-68
2023/06/27 10:01:38;;;;;;;4.10;1.70;;;;;;;20.96;47.68;101828.63;5053031;28;20040;-67
2023/06/27 10:04:04;;;;;;;5.40;1.38;;;;;;;21.08;47.26;101830.31;5064458;28;20057;-67
2023/06/27 10:06:31;;;;;;;3.85;1.48;;;;;;;21.10;46.77;101830.84;5066280;28;20047;-67
2023/06/27 10:08:57;;;;;;;6.47;1.48;;;;;;;21.14;46.87;101823.72;5054200;28;20025;-68
2023/06/27 10:11:23;;;;;;;5.97;1.75;;;;;;;21.22;46.58;101832.22;5055023;28;20037;-67
2023/06/27 10:13:49;;;;;;;5.78;1.50;;;;;;;21.43;47.49;101827.56;5044137;28;20041;-68
2023/06/27 10:16:16;;;;;;;6.00;1.40;;;;;;;21.37;45.98;101831.44;5034513;28;20108;-68
2023/06/27 10:18:42;;;;;;;4.03;1.05;;;;;;;21.34;43.84;101823.72;5038579;28;20112;-67
2023/06/27 10:21:09;;;;;;;6.30;1.52;;;;;;;21.46;44.29;101830.91;5051092;28;20036;-67
2023/06/27 10:23:37;;;;;;;5.20;1.27;;;;;;;21.34;44.58;101825.66;5054855;28;20120;-67
2023/06/27 10:26:03;;;;;;;5.22;1.42;;;;;;;21.25;44.72;101831.69;5046702;28;20025;-69
2023/06/27 10:28:32;;;;;;;7.05;1.48;;;;;;;21.22;46.25;101828.66;5035000;28;20090;-67
2023/06/27 10:30:58;;;;;;;5.47;1.55;;;;;;;21.27;45.66;101836.91;5037581;28;20116;-67
2023/06/27 10:33:28;;;;;;;4.28;1.30;;;;;;;21.28;45.53;101829.50;5054914;28;20115;-67
2023/06/27 10:36:03;;;;;;;7.20;1.40;;;;;;;21.38;45.71;101841.34;5053372;28;20032;-67
2023/06/27 10:38:36;;;;;;;8.30;1.60;;;;;;;21.47;44.69;101838.03;5054749;28;20031;-67
2023/06/27 10:41:10;;;;;;;3.22;1.15;;;;;;;21.44;45.04;101828.41;5054490;28;20040;-66
2023/06/27 10:43:47;;;;;;;5.68;1.38;;;;;;;21.29;45.69;101831.97;5054286;28;20447;-67
2023/06/27 10:46:19;;;;;;;2.72;1.13;;;;;;;21.31;45.59;101826.19;5044320;28;20076;-68
2023/06/27 10:48:49;;;;;;;3.88;1.33;;;;;;;21.30;44.71;101830.88;5033386;28;20037;-67
2023/06/27 10:51:19;;;;;;;3.65;1.30;;;;;;;21.28;45.19;101827.56;5044881;28;20480;-67
2023/06/27 10:54:07;;;;;;;5.20;1.35;;;;;;;21.30;45.54;101822.59;5047390;28;20033;-67
2023/06/27 10:56:40;;;;;;;6.13;1.77;;;;;;;21.25;45.70;101825.38;5034362;28;20409;-68
2023/06/27 10:59:10;;;;;;;3.67;1.30;;;;;;;21.35;46.17;101825.38;5050353;28;20404;-67
2023/06/27 11:01:40;;;;;;;3.35;1.25;;;;;;;21.34;43.16;101817.41;5037092;28;20029;-67
2023/06/27 11:04:25;;;;;;;5.67;1.40;;;;;;;21.49;42.83;101820.16;5043213;28;20031;-67
2023/06/27 11:07:00;;;;;;;4.47;1.20;;;;;;;21.55;42.32;101824.59;5054092;28;20279;-67
2023/06/27 11:09:28;;;;;;;2.50;1.08;;;;;;;21.66;41.36;101824.59;5054275;28;20047;-67
2023/06/27 11:12:15;;;;;;;5.47;1.30;;;;;;;21.83;42.24;101836.16;5053882;28;20029;-66
2023/06/27 11:14:42;;;;;;;9.70;1.73;;;;;;;21.89;40.95;101825.94;5052850;28;20476;-72
2023/06/27 11:17:08;;;;;;;5.53;1.23;;;;;;;21.86;41.03;101823.72;5040015;28;20461;-69
2023/06/27 11:19:35;;;;;;;5.68;1.20;;;;;;;22.08;41.50;101820.66;5053036;28;20020;-69
2023/06/27 11:22:01;;;;;;;8.32;1.50;;;;;;;22.09;40.43;101812.13;5053734;28;20104;-68
2023/06/27 11:24:29;;;;;;;3.72;1.17;;;;;;;22.19;41.68;101814.00;5036202;28;20036;-69
2023/06/27 11:26:55;;;;;;;6.38;1.38;;;;;;;22.23;40.02;101828.06;5035638;28;20025;-68
2023/06/27 11:29:20;;;;;;;2.58;0.98;;;;;;;22.41;41.67;101813.69;5044465;28;20033;-70
2023/06/27 11:31:46;;;;;;;3.22;1.20;;;;;;;22.47;40.05;101817.28;5052288;28;20040;-70
2023/06/27 11:34:11;;;;;;;3.65;1.23;;;;;;;22.46;40.63;101815.59;5053953;28;20469;-70
2023/06/27 11:36:38;;;;;;;3.22;1.17;;;;;;;22.58;41.17;101818.03;5053632;28;20035;-69
2023/06/27 11:39:03;;;;;;;2.65;1.17;;;;;;;22.56;40.93;101825.78;5053113;28;20036;-70
2023/06/27 11:41:28;;;;;;;4.00;0.95;;;;;;;22.43;41.08;101818.94;5051745;28;20029;-71
2023/06/27 11:43:55;;;;;;;4.65;1.25;;;;;;;22.45;42.29;101831.34;5033421;28;20064;-71
2023/06/27 11:46:21;;;;;;;2.60;1.23;;;;;;;22.50;42.40;101826.91;5033816;28;20475;-71
2023/06/27 11:48:47;;;;;;;5.43;1.27;;;;;;;22.46;42.42;101821.97;5033029;28;20137;-71
2023/06/27 11:51:13;;;;;;;8.25;1.10;;;;;;;22.71;42.79;101811.09;5033497;28;20066;-71
2023/06/27 11:53:44;;;;;;;9.27;1.60;;;;;;;22.81;43.17;101813.78;5033792;28;20033;-70
2023/06/27 11:56:10;;;;;;;4.70;1.38;;;;;;;22.70;43.48;101813.00;5033024;28;20049;-71
2023/06/27 11:58:36;;;;;;;3.10;1.20;;;;;;;22.54;42.93;101806.75;5033114;28;20029;-73
2023/06/27 12:01:13;;;;;;;6.72;1.48;;;;;;;22.51;43.10;101831.31;5029239;28;20033;-69
2023/06/27 12:03:39;;;;;;;5.10;1.45;;;;;;;22.41;41.57;101826.66;5037715;28;20534;-70
2023/06/27 12:06:04;;;;;;;4.13;1.50;;;;;;;22.35;42.78;101817.59;5033628;28;20060;-72
2023/06/27 12:08:31;;;;;;;4.18;1.42;;;;;;;22.29;43.54;101818.69;5032771;28;20083;-69
2023/06/27 12:11:00;;;;;;;6.15;1.48;;;;;;;22.24;43.03;101824.22;5032996;28;20026;-69
2023/06/27 12:13:44;;;;;;;4.82;1.60;;;;;;;22.45;42.91;101820.31;5039125;28;20078;-68
2023/06/27 12:16:29;;;;;;;7.03;1.92;;;;;;;22.44;42.68;101813.13;5041989;28;20469;-67
2023/06/27 12:19:03;;;;;;;6.78;1.50;;;;;;;22.52;41.65;101814.47;5032100;28;20465;-67
2023/06/27 12:21:28;;;;;;;4.13;1.50;;;;;;;22.68;42.02;101795.94;5032065;28;20065;-69
2023/06/27 12:23:53;;;;;;;6.53;1.73;;;;;;;22.57;42.62;101808.09;5032346;28;20489;-69
2023/06/27 12:26:19;;;;;;;9.68;1.80;;;;;;;22.36;42.64;101808.22;5031786;28;20044;-68
2023/06/27 12:29:13;;;;;;;8.25;1.73;;;;;;;22.29;42.38;101808.47;5032779;28;20110;-69
2023/06/27 12:31:39;;;;;;;4.80;1.38;;;;;;;21.95;43.42;101803.63;5033123;28;20053;-69
2023/06/27 12:34:05;;;;;;;11.00;2.05;;;;;;;21.87;44.10;101800.59;5033243;28;20029;-69
2023/06/27 12:36:32;;;;;;;5.55;1.50;;;;;;;21.92;44.44;101806.94;5051478;28;20162;-68
2023/06/27 12:38:59;;;;;;;3.72;1.80;;;;;;;21.96;44.85;101809.94;5044569;28;20041;-68
2023/06/27 12:41:25;;;;;;;3.75;1.50;;;;;;;22.12;44.86;101803.28;5037769;28;20032;-70
2023/06/27 12:43:53;;;;;;;5.75;1.60;;;;;;;22.29;44.22;101793.88;5047917;28;20392;-70
2023/06/27 12:46:22;;;;;;;6.07;1.50;;;;;;;22.19;44.15;101793.91;5048395;28;20033;-71
2023/06/27 12:48:47;;;;;;;6.70;1.70;;;;;;;22.08;44.45;101793.09;5037100;28;20040;-67
2023/06/27 12:51:13;;;;;;;6.72;1.50;;;;;;;22.14;45.13;101789.22;5030715;28;20027;-67
2023/06/27 12:53:39;;;;;;;8.27;1.70;;;;;;;22.04;44.20;101787.34;5031769;28;20052;-68
2023/06/27 12:56:05;;;;;;;4.53;1.50;;;;;;;22.04;44.65;101797.53;5051622;28;20052;-69
2023/06/27 12:58:31;;;;;;;6.70;1.67;;;;;;;22.01;44.78;101793.41;5051161;28;20033;-68
2023/06/27 13:00:59;;;;;;;7.07;1.60;;;;;;;22.17;44.93;101785.91;5048579;28;20021;-67
2023/06/27 13:03:29;;;;;;;4.45;1.50;;;;;;;22.50;44.69;101777.28;5052399;28;20074;-65
2023/06/27 13:05:54;;;;;;;7.53;1.95;;;;;;;22.62;43.66;101786.03;5040727;28;20105;-67
2023/06/27 13:08:20;;;;;;;6.88;1.48;;;;;;;22.57;44.49;101789.66;5030852;28;20128;-67
2023/06/27 13:10:46;;;;;;;5.43;1.52;;;;;;;22.59;43.60;101776.38;5031057;28;20071;-66
2023/06/27 13:13:11;;;;;;;9.10;2.00;;;;;;;22.55;43.45;101778.06;5029712;28;20552;-67
2023/06/27 13:15:37;;;;;;;5.60;1.52;;;;;;;22.57;42.13;101783.28;5031839;28;20056;-66
2023/06/27 13:18:03;;;;;;;8.15;1.60;;;;;;;22.67;42.27;101783.22;5032048;28;20035;-67
2023/06/27 13:20:28;;;;;;;4.60;1.30;;;;;;;22.71;42.29;101770.53;5033526;28;20083;-66
2023/06/27 13:22:53;;;;;;;3.72;1.58;;;;;;;22.93;43.02;101767.38;5040630;28;20431;-68
2023/06/27 13:25:20;;;;;;;8.38;1.60;;;;;;;22.86;42.86;101774.28;5040090;28;20030;-66
2023/06/27 13:27:45;;;;;;;5.90;1.50;;;;;;;22.87;42.96;101778.72;5040558;28;20038;-68
2023/06/27 13:30:11;;;;;;;7.78;1.65;;;;;;;22.79;42.90;101769.91;5032016;28;20125;-67
2023/06/27 13:32:36;;;;;;;6.80;1.50;;;;;;;22.63;43.10;101782.16;5030897;28;20033;-68
2023/06/27 13:35:02;;;;;;;8.20;1.80;;;;;;;22.58;43.22;101776.66;5032595;28;20022;-70
2023/06/27 13:37:27;;;;;;;4.57;1.45;;;;;;;22.70;43.80;101771.63;5031677;28;20026;-68
2023/06/27 13:39:53;;;;;;;8.57;1.70;;;;;;;22.68;42.76;101768.34;5031290;28;20369;-67
2023/06/27 13:42:20;;;;;;;10.77;1.88;;;;;;;22.61;42.98;101774.16;5031634;28;20056;-66
2023/06/27 13:44:45;;;;;;;7.20;1.88;;;;;;;22.81;44.20;101778.75;5036080;28;20033;-70
2023/06/27 13:47:10;;;;;;;6.10;1.80;;;;;;;22.95;42.85;101769.84;5035488;28;20544;-70
2023/06/27 13:49:36;;;;;;;4.85;1.70;;;;;;;23.04;42.82;101765.34;5036042;28;20029;-67
2023/06/27 13:52:04;;;;;;;3.88;1.42;;;;;;;23.20;42.91;101763.31;5049484;28;20037;-68
2023/06/27 13:54:30;;;;;;;5.95;1.45;;;;;;;23.12;42.66;101762.00;5053288;28;20041;-67
2023/06/27 13:56:56;;;;;;;5.57;1.80;;;;;;;23.04;43.33;101757.06;5036920;28;20539;-68
2023/06/27 13:59:21;;;;;;;5.40;1.70;;;;;;;23.23;42.17;101759.16;5048095;28;20037;-67
2023/06/27 14:01:47;;;;;;;5.88;1.58;;;;;;;23.30;41.49;101757.72;5032630;28;20025;-67
2023/06/27 14:04:13;;;;;;;3.88;1.40;;;;;;;23.49;42.30;101765.28;5042621;28;20037;-68
2023/06/27 14:06:38;;;;;;;6.65;1.70;;;;;;;23.71;42.73;101756.50;5055392;28;20031;-69
2023/06/27 14:09:03;;;;;;;8.60;1.50;;;;;;;23.51;40.75;101752.81;5054802;28;20117;-67
2023/06/27 14:11:29;;;;;;;3.38;1.38;;;;;;;23.54;40.40;101746.72;5040896;28;20385;-66
2023/06/27 14:13:54;;;;;;;3.22;1.50;;;;;;;23.58;39.91;101757.19;5033967;28;20036;-68
2023/06/27 14:16:20;;;;;;;5.85;1.38;;;;;;;23.69;40.81;101747.69;5040467;28;20033;-69
2023/06/27 14:18:46;;;;;;;10.20;1.52;;;;;;;23.73;40.02;101748.72;5046798;28;20029;-68
2023/06/27 14:21:12;;;;;;;4.30;1.33;;;;;;;23.80;40.66;101746.44;5052620;28;20040;-67
2023/06/27 14:23:40;;;;;;;6.93;1.70;;;;;;;23.83;39.59;101747.81;5055074;28;20033;-68
2023/06/27 14:26:07;;;;;;;9.45;2.08;;;;;;;23.84;39.97;101755.00;5053422;28;20426;-67
2023/06/27 14:28:33;;;;;;;7.70;1.77;;;;;;;24.10;39.77;101747.25;5054586;28;20039;-68
2023/06/27 14:31:00;;;;;;;6.30;1.50;;;;;;;24.21;38.44;101754.28;5053808;28;20060;-69
2023/06/27 14:33:26;;;;;;;7.75;1.70;;;;;;;24.12;38.53;101750.53;5044546;28;20135;-69
2023/06/27 14:35:52;;;;;;;6.43;1.60;;;;;;;24.35;38.50;101748.03;5045435;28;20079;-67
2023/06/27 14:38:18;;;;;;;6.10;1.63;;;;;;;24.17;38.12;101750.50;5034678;28;20030;-68
2023/06/27 14:40:44;;;;;;;4.00;1.48;;;;;;;24.26;38.29;101738.75;5034800;28;20120;-70
2023/06/27 14:43:12;;;;;;;3.80;1.30;;;;;;;24.29;38.56;101746.47;5047548;28;20037;-69
2023/06/27 14:45:38;;;;;;;8.32;1.65;;;;;;;24.36;38.22;101738.63;5048640;28;20104;-68
2023/06/27 14:48:03;;;;;;;4.75;1.80;;;;;;;24.40;38.36;101734.16;5048739;28;20029;-71
2023/06/27 14:50:28;;;;;;;7.13;1.25;;;;;;;24.55;38.60;101728.41;5034590;28;20031;-67
2023/06/27 14:52:54;;;;;;;4.80;1.33;;;;;;;24.51;38.32;101724.59;5048892;28;20044;-69
2023/06/27 14:55:19;;;;;;;9.05;1.73;;;;;;;24.44;38.85;101724.13;5053162;28;20049;-68
2023/06/27 14:57:44;;;;;;;4.32;1.42;;;;;;;24.69;39.35;101722.97;5034956;28;20473;-67
2023/06/27 15:00:10;;;;;;;4.68;1.38;;;;;;;24.72;39.48;101729.88;5040629;28;20043;-69
2023/06/27 15:02:36;;;;;;;6.55;1.48;;;;;;;24.38;40.10;101733.63;5041737;28;20040;-69
2023/06/27 15:05:01;;;;;;;8.55;1.65;;;;;;;24.24;40.17;101733.53;5052788;28;20039;-69
2023/06/27 15:07:26;;;;;;;4.78;1.25;;;;;;;24.13;38.37;101727.31;5052862;28;20376;-67
2023/06/27 15:09:52;;;;;;;5.60;1.45;;;;;;;24.08;40.16;101729.31;5053919;28;20051;-68
2023/06/27 15:12:17;;;;;;;5.28;1.55;;;;;;;23.94;39.63;101726.44;5034510;28;20025;-69
2023/06/27 15:14:49;;;;;;;6.75;1.58;;;;;;;23.94;39.65;101721.72;5034589;28;20083;-71
2023/06/27 15:17:16;;;;;;;5.25;1.77;;;;;;;23.77;40.72;101715.81;5033785;28;20029;-68
2023/06/27 15:19:42;;;;;;;9.43;1.70;;;;;;;23.61;41.50;101723.44;5033808;28;20040;-68
2023/06/27 15:22:07;;;;;;;4.75;1.58;;;;;;;23.54;42.21;101716.31;5037549;28;20083;-68
2023/06/27 15:24:32;;;;;;;7.22;1.60;;;;;;;23.39;41.66;101715.69;5049015;28;20546;-70
2023/06/27 15:26:58;;;;;;;4.40;1.65;;;;;;;23.25;41.64;101709.97;5045947;28;20029;-72
2023/06/27 15:29:23;;;;;;;6.45;1.60;;;;;;;23.16;42.15;101699.56;5034238;28;20028;-68
2023/06/27 15:31:49;;;;;;;7.35;1.75;;;;;;;23.11;42.72;101702.38;5036244;28;20029;-70
2023/06/27 15:34:14;;;;;;;8.02;1.52;;;;;;;22.95;42.08;101698.06;5051624;28;20061;-67
2023/06/27 15:36:40;;;;;;;6.75;1.77;;;;;;;22.89;42.58;101701.97;5053284;28;20120;-70
2023/06/27 15:39:05;;;;;;;4.70;1.65;;;;;;;23.11;43.68;101704.31;5044774;28;20517;-67
2023/06/27 15:41:31;;;;;;;4.68;1.70;;;;;;;23.26;42.30;101695.88;5040158;28;20029;-70
2023/06/27 15:43:56;;;;;;;4.70;1.50;;;;;;;23.11;42.00;101707.88;5042596;28;20453;-67
2023/06/27 15:46:21;;;;;;;4.90;1.90;;;;;;;23.10;42.31;101695.22;5050632;28;20033;-67
2023/06/27 15:48:47;;;;;;;6.60;1.50;;;;;;;23.24;42.72;101691.78;5036246;28;20393;-71
2023/06/27 15:51:12;;;;;;;4.07;1.27;;;;;;;23.39;42.76;101686.09;5041106;28;20103;-66
2023/06/27 15:53:37;;;;;;;5.97;1.33;;;;;;;23.42;42.17;101699.34;5050868;28;20029;-68
2023/06/27 15:56:03;;;;;;;5.57;1.38;;;;;;;23.37;41.53;101696.63;5038531;28;20042;-66
2023/06/27 15:58:29;;;;;;;7.97;1.73;;;;;;;23.20;41.54;101696.22;5032571;28;20031;-67
2023/06/27 16:00:54;;;;;;;4.90;1.40;;;;;;;23.25;41.89;101687.88;5034552;28;20090;-67
2023/06/27 16:03:19;;;;;;;8.10;1.40;;;;;;;22.98;41.13;101694.75;5051631;28;20391;-67
2023/06/27 16:05:45;;;;;;;4.55;1.55;;;;;;;22.98;41.28;101689.22;5050355;28;20040;-67
2023/06/27 16:08:10;;;;;;;4.85;1.52;;;;;;;22.90;41.22;101678.78;5053057;28;20075;-68
